sensor_id;sensor_type;location;lat;lon;timestamp;pressure;altitude;pressure_sealevel;temperature
51149;BMP280;37210;50.058;8.688;2023-07-24T00:01:42;99372.63;;;23.96
51149;BMP280;37210;50.058;8.688;2023-07-24T00:04:09;99365.91;;;24.03
51149;BMP280;37210;50.058;8.688;2023-07-24T00:06:37;99365.84;;;24.17
51149;BMP280;37210;50.058;8.688;2023-07-24T00:09:05;99364.78;;;24.07
51149;BMP280;37210;50.058;8.688;2023-07-24T00:11:33;99367.88;;;24.13
51149;BMP280;37210;50.058;8.688;2023-07-24T00:14:00;99369.47;;;24.16
51149;BMP280;37210;50.058;8.688;2023-07-24T00:16:27;99366.38;;;24.22
51149;BMP280;37210;50.058;8.688;2023-07-24T00:18:55;99360.50;;;24.17
51149;BMP280;37210;50.058;8.688;2023-07-24T00:21:22;99369.69;;;24.13
51149;BMP280;37210;50.058;8.688;2023-07-24T00:23:50;99353.84;;;24.22
51149;BMP280;37210;50.058;8.688;2023-07-24T00:26:18;99334.09;;;24.12
51149;BMP280;37210;50.058;8.688;2023-07-24T00:28:46;99350.00;;;24.14
51149;BMP280;37210;50.058;8.688;2023-07-24T00:31:14;99341.59;;;24.20
51149;BMP280;37210;50.058;8.688;2023-07-24T00:33:44;99343.91;;;24.12
51149;BMP280;37210;50.058;8.688;2023-07-24T00:36:11;99342.22;;;24.23
51149;BMP280;37210;50.058;8.688;2023-07-24T00:38:39;99337.75;;;24.24
51149;BMP280;37210;50.058;8.688;2023-07-24T00:41:06;99316.22;;;24.00
51149;BMP280;37210;50.058;8.688;2023-07-24T00:43:35;99342.22;;;24.23
51149;BMP280;37210;50.058;8.688;2023-07-24T00:46:03;99343.91;;;24.24
51149;BMP280;37210;50.058;8.688;2023-07-24T00:48:30;99348.00;;;24.05
51149;BMP280;37210;50.058;8.688;2023-07-24T00:50:58;99335.81;;;24.13
51149;BMP280;37210;50.058;8.688;2023-07-24T00:53:26;99349.22;;;23.99
51149;BMP280;37210;50.058;8.688;2023-07-24T00:55:53;99339.94;;;23.92
51149;BMP280;37210;50.058;8.688;2023-07-24T00:58:21;99334.53;;;24.06
51149;BMP280;37210;50.058;8.688;2023-07-24T01:00:50;99333.09;;;23.88
51149;BMP280;37210;50.058;8.688;2023-07-24T01:03:18;99332.78;;;23.93
51149;BMP280;37210;50.058;8.688;2023-07-24T01:05:46;99334.69;;;24.03
51149;BMP280;37210;50.058;8.688;2023-07-24T01:08:14;99327.09;;;23.97
51149;BMP280;37210;50.058;8.688;2023-07-24T01:10:42;99335.34;;;23.94
51149;BMP280;37210;50.058;8.688;2023-07-24T01:13:15;99335.97;;;23.98
51149;BMP280;37210;50.058;8.688;2023-07-24T01:15:54;99335.31;;;23.69
51149;BMP280;37210;50.058;8.688;2023-07-24T01:18:29;99327.19;;;23.70
51149;BMP280;37210;50.058;8.688;2023-07-24T01:20:58;99335.75;;;23.75
51149;BMP280;37210;50.058;8.688;2023-07-24T01:23:40;99324.53;;;23.83
51149;BMP280;37210;50.058;8.688;2023-07-24T01:26:20;99320.22;;;23.68
51149;BMP280;37210;50.058;8.688;2023-07-24T01:28:51;99316.00;;;23.78
51149;BMP280;37210;50.058;8.688;2023-07-24T01:31:18;99313.84;;;23.70
51149;BMP280;37210;50.058;8.688;2023-07-24T01:33:47;99315.88;;;23.79
51149;BMP280;37210;50.058;8.688;2023-07-24T01:36:18;99294.19;;;23.71
51149;BMP280;37210;50.058;8.688;2023-07-24T01:38:47;99296.88;;;23.71
51149;BMP280;37210;50.058;8.688;2023-07-24T01:41:17;99312.66;;;23.74
51149;BMP280;37210;50.058;8.688;2023-07-24T01:43:46;99294.63;;;23.78
51149;BMP280;37210;50.058;8.688;2023-07-24T01:46:14;99297.38;;;23.76
51149;BMP280;37210;50.058;8.688;2023-07-24T01:48:43;99296.94;;;23.70
51149;BMP280;37210;50.058;8.688;2023-07-24T01:51:10;99287.53;;;23.52
51149;BMP280;37210;50.058;8.688;2023-07-24T01:53:37;99292.88;;;23.52
51149;BMP280;37210;50.058;8.688;2023-07-24T01:56:05;99294.66;;;23.12
51149;BMP280;37210;50.058;8.688;2023-07-24T01:58:32;99283.38;;;23.21
51149;BMP280;37210;50.058;8.688;2023-07-24T02:01:01;99286.81;;;23.23
51149;BMP280;37210;50.058;8.688;2023-07-24T02:03:29;99280.94;;;23.31
51149;BMP280;37210;50.058;8.688;2023-07-24T02:05:56;99274.63;;;23.19
51149;BMP280;37210;50.058;8.688;2023-07-24T02:08:23;99275.78;;;23.15
51149;BMP280;37210;50.058;8.688;2023-07-24T02:10:51;99268.91;;;22.98
51149;BMP280;37210;50.058;8.688;2023-07-24T02:13:18;99247.81;;;22.81
51149;BMP280;37210;50.058;8.688;2023-07-24T02:15:49;99243.06;;;22.72
51149;BMP280;37210;50.058;8.688;2023-07-24T02:18:18;99226.84;;;22.49
51149;BMP280;37210;50.058;8.688;2023-07-24T02:20:49;99214.31;;;22.77
51149;BMP280;37210;50.058;8.688;2023-07-24T02:23:17;99213.25;;;23.07
51149;BMP280;37210;50.058;8.688;2023-07-24T02:25:44;99201.25;;;22.60
51149;BMP280;37210;50.058;8.688;2023-07-24T02:28:12;99208.09;;;23.03
51149;BMP280;37210;50.058;8.688;2023-07-24T02:30:39;99195.16;;;22.58
51149;BMP280;37210;50.058;8.688;2023-07-24T02:33:07;99224.78;;;23.07
51149;BMP280;37210;50.058;8.688;2023-07-24T02:35:39;99228.53;;;23.17
51149;BMP280;37210;50.058;8.688;2023-07-24T02:38:07;99214.19;;;23.05
51149;BMP280;37210;50.058;8.688;2023-07-24T02:40:35;99223.69;;;23.10
51149;BMP280;37210;50.058;8.688;2023-07-24T02:43:03;99244.56;;;23.03
51149;BMP280;37210;50.058;8.688;2023-07-24T02:45:33;99234.13;;;23.00
51149;BMP280;37210;50.058;8.688;2023-07-24T02:48:01;99246.06;;;22.94
51149;BMP280;37210;50.058;8.688;2023-07-24T02:50:29;99242.13;;;23.00
51149;BMP280;37210;50.058;8.688;2023-07-24T02:52:58;99237.09;;;22.95
51149;BMP280;37210;50.058;8.688;2023-07-24T02:55:26;99236.19;;;22.82
51149;BMP280;37210;50.058;8.688;2023-07-24T02:57:53;99242.91;;;22.61
51149;BMP280;37210;50.058;8.688;2023-07-24T03:00:21;99236.88;;;22.31
51149;BMP280;37210;50.058;8.688;2023-07-24T03:02:49;99240.63;;;22.69
51149;BMP280;37210;50.058;8.688;2023-07-24T03:05:16;99248.91;;;22.65
51149;BMP280;37210;50.058;8.688;2023-07-24T03:07:44;99247.06;;;22.79
51149;BMP280;37210;50.058;8.688;2023-07-24T03:10:14;99250.13;;;22.73
51149;BMP280;37210;50.058;8.688;2023-07-24T03:12:41;99249.84;;;22.64
51149;BMP280;37210;50.058;8.688;2023-07-24T03:15:09;99255.13;;;22.65
51149;BMP280;37210;50.058;8.688;2023-07-24T03:17:37;99228.66;;;22.48
51149;BMP280;37210;50.058;8.688;2023-07-24T03:20:08;99252.88;;;22.58
51149;BMP280;37210;50.058;8.688;2023-07-24T03:22:36;99219.63;;;22.51
51149;BMP280;37210;50.058;8.688;2023-07-24T03:25:04;99240.03;;;22.23
51149;BMP280;37210;50.058;8.688;2023-07-24T03:27:33;99227.25;;;22.28
51149;BMP280;37210;50.058;8.688;2023-07-24T03:30:01;99240.00;;;22.38
51149;BMP280;37210;50.058;8.688;2023-07-24T03:32:29;99237.13;;;22.41
51149;BMP280;37210;50.058;8.688;2023-07-24T03:34:56;99238.75;;;22.43
51149;BMP280;37210;50.058;8.688;2023-07-24T03:37:24;99234.81;;;21.94
51149;BMP280;37210;50.058;8.688;2023-07-24T03:39:51;99220.41;;;22.24
51149;BMP280;37210;50.058;8.688;2023-07-24T03:42:25;99188.03;;;21.90
51149;BMP280;37210;50.058;8.688;2023-07-24T03:44:55;99202.94;;;22.06
51149;BMP280;37210;50.058;8.688;2023-07-24T03:47:23;99192.56;;;22.16
51149;BMP280;37210;50.058;8.688;2023-07-24T03:49:51;99197.50;;;22.08
51149;BMP280;37210;50.058;8.688;2023-07-24T03:52:18;99186.22;;;22.04
51149;BMP280;37210;50.058;8.688;2023-07-24T03:54:46;99183.06;;;21.98
51149;BMP280;37210;50.058;8.688;2023-07-24T03:57:13;99187.34;;;21.86
51149;BMP280;37210;50.058;8.688;2023-07-24T03:59:41;99163.47;;;21.71
51149;BMP280;37210;50.058;8.688;2023-07-24T04:02:10;99173.44;;;21.81
51149;BMP280;37210;50.058;8.688;2023-07-24T04:04:37;99136.84;;;21.42
51149;BMP280;37210;50.058;8.688;2023-07-24T04:07:05;99154.81;;;21.25
51149;BMP280;37210;50.058;8.688;2023-07-24T04:09:32;99147.03;;;21.64
51149;BMP280;37210;50.058;8.688;2023-07-24T04:12:00;99142.94;;;21.44
51149;BMP280;37210;50.058;8.688;2023-07-24T04:14:27;99159.69;;;21.61
51149;BMP280;37210;50.058;8.688;2023-07-24T04:16:55;99176.56;;;21.31
51149;BMP280;37210;50.058;8.688;2023-07-24T04:19:24;99172.75;;;21.21
51149;BMP280;37210;50.058;8.688;2023-07-24T04:21:51;99173.41;;;20.95
51149;BMP280;37210;50.058;8.688;2023-07-24T04:24:19;99191.59;;;21.61
51149;BMP280;37210;50.058;8.688;2023-07-24T04:26:46;99189.72;;;21.48
51149;BMP280;37210;50.058;8.688;2023-07-24T04:29:13;99176.47;;;21.61
51149;BMP280;37210;50.058;8.688;2023-07-24T04:31:41;99195.69;;;21.52
51149;BMP280;37210;50.058;8.688;2023-07-24T04:34:08;99189.22;;;21.70
51149;BMP280;37210;50.058;8.688;2023-07-24T04:36:37;99188.66;;;21.79
51149;BMP280;37210;50.058;8.688;2023-07-24T04:39:04;99181.13;;;21.72
51149;BMP280;37210;50.058;8.688;2023-07-24T04:41:32;99188.41;;;21.84
51149;BMP280;37210;50.058;8.688;2023-07-24T04:43:59;99180.78;;;22.06
51149;BMP280;37210;50.058;8.688;2023-07-24T04:46:26;99183.25;;;22.09
51149;BMP280;37210;50.058;8.688;2023-07-24T04:48:54;99178.22;;;22.04
51149;BMP280;37210;50.058;8.688;2023-07-24T04:51:21;99197.59;;;22.20
51149;BMP280;37210;50.058;8.688;2023-07-24T04:53:50;99197.78;;;22.17
51149;BMP280;37210;50.058;8.688;2023-07-24T04:56:17;99194.75;;;22.23
51149;BMP280;37210;50.058;8.688;2023-07-24T04:58:45;99186.53;;;22.26
51149;BMP280;37210;50.058;8.688;2023-07-24T05:01:12;99158.91;;;22.15
51149;BMP280;37210;50.058;8.688;2023-07-24T05:03:39;99185.00;;;22.37
51149;BMP280;37210;50.058;8.688;2023-07-24T05:06:07;99191.47;;;22.33
51149;BMP280;37210;50.058;8.688;2023-07-24T05:08:34;99195.47;;;22.40
51149;BMP280;37210;50.058;8.688;2023-07-24T05:11:03;99189.16;;;22.41
51149;BMP280;37210;50.058;8.688;2023-07-24T05:13:30;99174.25;;;22.38
51149;BMP280;37210;50.058;8.688;2023-07-24T05:15:58;99186.78;;;22.50
51149;BMP280;37210;50.058;8.688;2023-07-24T05:18:25;99197.97;;;22.55
51149;BMP280;37210;50.058;8.688;2023-07-24T05:20:53;99211.13;;;22.58
51149;BMP280;37210;50.058;8.688;2023-07-24T05:23:20;99202.09;;;22.61
51149;BMP280;37210;50.058;8.688;2023-07-24T05:25:56;99188.28;;;21.99
51149;BMP280;37210;50.058;8.688;2023-07-24T05:28:26;99193.44;;;22.43
51149;BMP280;37210;50.058;8.688;2023-07-24T05:30:54;99195.53;;;22.52
51149;BMP280;37210;50.058;8.688;2023-07-24T05:33:21;99195.72;;;22.63
51149;BMP280;37210;50.058;8.688;2023-07-24T05:35:49;99194.56;;;22.67
51149;BMP280;37210;50.058;8.688;2023-07-24T05:38:16;99193.28;;;22.73
51149;BMP280;37210;50.058;8.688;2023-07-24T05:40:44;99176.44;;;22.72
51149;BMP280;37210;50.058;8.688;2023-07-24T05:43:11;99178.78;;;22.77
51149;BMP280;37210;50.058;8.688;2023-07-24T05:45:40;99169.13;;;22.76
51149;BMP280;37210;50.058;8.688;2023-07-24T05:48:07;99176.38;;;22.86
51149;BMP280;37210;50.058;8.688;2023-07-24T05:50:34;99152.69;;;22.82
51149;BMP280;37210;50.058;8.688;2023-07-24T05:53:02;99175.13;;;22.92
51149;BMP280;37210;50.058;8.688;2023-07-24T05:55:29;99177.56;;;22.95
51149;BMP280;37210;50.058;8.688;2023-07-24T05:57:56;99176.31;;;23.00
51149;BMP280;37210;50.058;8.688;2023-07-24T06:00:24;99170.97;;;23.00
51149;BMP280;37210;50.058;8.688;2023-07-24T06:02:54;99174.84;;;23.09
51149;BMP280;37210;50.058;8.688;2023-07-24T06:05:21;99175.22;;;23.03
51149;BMP280;37210;50.058;8.688;2023-07-24T06:07:48;99178.16;;;23.25
51149;BMP280;37210;50.058;8.688;2023-07-24T06:10:16;99168.56;;;23.23
51149;BMP280;37210;50.058;8.688;2023-07-24T06:12:43;99171.53;;;23.31
51149;BMP280;37210;50.058;8.688;2023-07-24T06:15:11;99179.16;;;23.37
51149;BMP280;37210;50.058;8.688;2023-07-24T06:17:38;99175.13;;;23.56
51149;BMP280;37210;50.058;8.688;2023-07-24T06:20:08;99183.00;;;23.58
51149;BMP280;37210;50.058;8.688;2023-07-24T06:22:35;99181.22;;;23.58
51149;BMP280;37210;50.058;8.688;2023-07-24T06:25:03;99177.91;;;23.55
51149;BMP280;37210;50.058;8.688;2023-07-24T06:27:31;99166.47;;;23.65
51149;BMP280;37210;50.058;8.688;2023-07-24T06:29:59;99161.88;;;23.67
51149;BMP280;37210;50.058;8.688;2023-07-24T06:32:26;99173.31;;;23.82
51149;BMP280;37210;50.058;8.688;2023-07-24T06:34:54;99177.34;;;23.88
51149;BMP280;37210;50.058;8.688;2023-07-24T06:37:23;99184.25;;;24.03
51149;BMP280;37210;50.058;8.688;2023-07-24T06:39:50;99156.06;;;23.99
51149;BMP280;37210;50.058;8.688;2023-07-24T06:42:17;99171.50;;;24.31
51149;BMP280;37210;50.058;8.688;2023-07-24T06:44:45;99166.28;;;24.53
51149;BMP280;37210;50.058;8.688;2023-07-24T06:47:12;99181.16;;;24.21
51149;BMP280;37210;50.058;8.688;2023-07-24T06:49:39;99167.88;;;24.56
51149;BMP280;37210;50.058;8.688;2023-07-24T06:52:07;99168.53;;;24.47
51149;BMP280;37210;50.058;8.688;2023-07-24T06:54:36;99184.00;;;24.31
51149;BMP280;37210;50.058;8.688;2023-07-24T06:57:03;99180.47;;;24.30
51149;BMP280;37210;50.058;8.688;2023-07-24T06:59:31;99178.66;;;24.31
51149;BMP280;37210;50.058;8.688;2023-07-24T07:01:59;99183.38;;;24.27
51149;BMP280;37210;50.058;8.688;2023-07-24T07:04:26;99173.56;;;24.51
51149;BMP280;37210;50.058;8.688;2023-07-24T07:06:54;99177.03;;;24.65
51149;BMP280;37210;50.058;8.688;2023-07-24T07:09:21;99185.72;;;24.55
51149;BMP280;37210;50.058;8.688;2023-07-24T07:11:50;99187.13;;;24.61
51149;BMP280;37210;50.058;8.688;2023-07-24T07:14:17;99193.19;;;24.76
51149;BMP280;37210;50.058;8.688;2023-07-24T07:16:45;99183.03;;;24.92
51149;BMP280;37210;50.058;8.688;2023-07-24T07:19:13;99177.91;;;24.89
51149;BMP280;37210;50.058;8.688;2023-07-24T07:21:41;99180.69;;;25.11
51149;BMP280;37210;50.058;8.688;2023-07-24T07:24:08;99162.41;;;25.05
51149;BMP280;37210;50.058;8.688;2023-07-24T07:26:35;99164.84;;;25.43
51149;BMP280;37210;50.058;8.688;2023-07-24T07:29:04;99154.78;;;25.57
51149;BMP280;37210;50.058;8.688;2023-07-24T07:31:31;99152.09;;;25.90
51149;BMP280;37210;50.058;8.688;2023-07-24T07:33:59;99155.03;;;25.87
51149;BMP280;37210;50.058;8.688;2023-07-24T07:36:28;99160.38;;;25.98
51149;BMP280;37210;50.058;8.688;2023-07-24T07:38:56;99147.00;;;26.09
51149;BMP280;37210;50.058;8.688;2023-07-24T07:41:23;99148.53;;;26.34
51149;BMP280;37210;50.058;8.688;2023-07-24T07:43:50;99158.13;;;26.48
51149;BMP280;37210;50.058;8.688;2023-07-24T07:46:19;99154.66;;;26.68
51149;BMP280;37210;50.058;8.688;2023-07-24T07:48:46;99144.66;;;26.70
51149;BMP280;37210;50.058;8.688;2023-07-24T07:51:15;99140.00;;;26.83
51149;BMP280;37210;50.058;8.688;2023-07-24T07:53:42;99139.53;;;26.78
51149;BMP280;37210;50.058;8.688;2023-07-24T07:56:09;99132.22;;;26.80
51149;BMP280;37210;50.058;8.688;2023-07-24T07:58:37;99125.09;;;26.90
51149;BMP280;37210;50.058;8.688;2023-07-24T08:01:04;99115.94;;;27.13
51149;BMP280;37210;50.058;8.688;2023-07-24T08:03:33;99098.31;;;27.00
51149;BMP280;37210;50.058;8.688;2023-07-24T08:06:01;99125.28;;;27.19
51149;BMP280;37210;50.058;8.688;2023-07-24T08:08:28;99132.38;;;27.20
51149;BMP280;37210;50.058;8.688;2023-07-24T08:10:56;99121.69;;;27.29
51149;BMP280;37210;50.058;8.688;2023-07-24T08:13:23;99120.25;;;27.25
51149;BMP280;37210;50.058;8.688;2023-07-24T08:15:51;99118.59;;;27.34
51149;BMP280;37210;50.058;8.688;2023-07-24T08:18:18;99102.69;;;27.21
51149;BMP280;37210;50.058;8.688;2023-07-24T08:20:47;99113.16;;;27.04
51149;BMP280;37210;50.058;8.688;2023-07-24T08:23:14;99111.94;;;27.08
51149;BMP280;37210;50.058;8.688;2023-07-24T08:25:50;99111.38;;;26.72
51149;BMP280;37210;50.058;8.688;2023-07-24T08:28:19;99112.41;;;27.13
51149;BMP280;37210;50.058;8.688;2023-07-24T08:30:46;99100.91;;;27.31
51149;BMP280;37210;50.058;8.688;2023-07-24T08:33:23;99096.16;;;27.14
51149;BMP280;37210;50.058;8.688;2023-07-24T08:36:00;99113.13;;;26.94
51149;BMP280;37210;50.058;8.688;2023-07-24T08:38:28;99099.56;;;26.96
51149;BMP280;37210;50.058;8.688;2023-07-24T08:41:03;99103.38;;;27.14
51149;BMP280;37210;50.058;8.688;2023-07-24T08:43:33;99112.00;;;27.17
51149;BMP280;37210;50.058;8.688;2023-07-24T08:46:03;99094.53;;;26.70
51149;BMP280;37210;50.058;8.688;2023-07-24T08:48:34;99084.44;;;26.63
51149;BMP280;37210;50.058;8.688;2023-07-24T08:51:05;99085.03;;;26.77
51149;BMP280;37210;50.058;8.688;2023-07-24T08:53:34;99088.25;;;26.92
51149;BMP280;37210;50.058;8.688;2023-07-24T08:56:02;99095.25;;;27.04
51149;BMP280;37210;50.058;8.688;2023-07-24T08:58:31;99085.16;;;27.17
51149;BMP280;37210;50.058;8.688;2023-07-24T09:01:00;99087.59;;;27.20
51149;BMP280;37210;50.058;8.688;2023-07-24T09:03:30;99088.41;;;27.41
51149;BMP280;37210;50.058;8.688;2023-07-24T09:05:58;99099.59;;;27.67
51149;BMP280;37210;50.058;8.688;2023-07-24T09:08:32;99097.66;;;27.48
51149;BMP280;37210;50.058;8.688;2023-07-24T09:11:02;99084.25;;;27.58
51149;BMP280;37210;50.058;8.688;2023-07-24T09:13:31;99087.38;;;27.53
51149;BMP280;37210;50.058;8.688;2023-07-24T09:15:59;99082.94;;;27.43
51149;BMP280;37210;50.058;8.688;2023-07-24T09:18:27;99082.50;;;27.47
51149;BMP280;37210;50.058;8.688;2023-07-24T09:21:05;99079.44;;;27.31
51149;BMP280;37210;50.058;8.688;2023-07-24T09:23:34;99069.31;;;27.65
51149;BMP280;37210;50.058;8.688;2023-07-24T09:26:05;99068.38;;;27.45
51149;BMP280;37210;50.058;8.688;2023-07-24T09:28:32;99070.53;;;27.51
51149;BMP280;37210;50.058;8.688;2023-07-24T09:31:01;99057.16;;;27.61
51149;BMP280;37210;50.058;8.688;2023-07-24T09:33:34;99051.50;;;27.64
51149;BMP280;37210;50.058;8.688;2023-07-24T09:36:04;99032.88;;;27.82
51149;BMP280;37210;50.058;8.688;2023-07-24T09:38:35;99019.94;;;27.56
51149;BMP280;37210;50.058;8.688;2023-07-24T09:41:03;99010.66;;;27.70
51149;BMP280;37210;50.058;8.688;2023-07-24T09:43:33;99021.97;;;27.74
51149;BMP280;37210;50.058;8.688;2023-07-24T09:46:04;99028.06;;;27.66
51149;BMP280;37210;50.058;8.688;2023-07-24T09:48:32;99013.44;;;27.49
51149;BMP280;37210;50.058;8.688;2023-07-24T09:51:01;99012.03;;;27.55
51149;BMP280;37210;50.058;8.688;2023-07-24T09:53:33;99027.94;;;27.17
51149;BMP280;37210;50.058;8.688;2023-07-24T09:56:07;99026.19;;;27.06
51149;BMP280;37210;50.058;8.688;2023-07-24T09:58:37;99018.31;;;27.35
51149;BMP280;37210;50.058;8.688;2023-07-24T10:01:08;99021.28;;;27.72
51149;BMP280;37210;50.058;8.688;2023-07-24T10:03:39;99026.03;;;27.98
51149;BMP280;37210;50.058;8.688;2023-07-24T10:06:08;99041.19;;;28.09
51149;BMP280;37210;50.058;8.688;2023-07-24T10:08:39;99033.19;;;27.79
51149;BMP280;37210;50.058;8.688;2023-07-24T10:11:06;99030.06;;;27.83
51149;BMP280;37210;50.058;8.688;2023-07-24T10:13:36;99025.94;;;27.39
51149;BMP280;37210;50.058;8.688;2023-07-24T10:16:04;99032.66;;;27.04
51149;BMP280;37210;50.058;8.688;2023-07-24T10:18:34;99034.84;;;27.10
51149;BMP280;37210;50.058;8.688;2023-07-24T10:21:04;99045.28;;;27.63
51149;BMP280;37210;50.058;8.688;2023-07-24T10:23:34;99037.06;;;27.55
51149;BMP280;37210;50.058;8.688;2023-07-24T10:26:04;99013.56;;;27.27
51149;BMP280;37210;50.058;8.688;2023-07-24T10:28:33;99039.38;;;27.19
51149;BMP280;37210;50.058;8.688;2023-07-24T10:31:05;99036.97;;;27.36
51149;BMP280;37210;50.058;8.688;2023-07-24T10:33:36;99040.78;;;27.13
51149;BMP280;37210;50.058;8.688;2023-07-24T10:36:11;99027.69;;;27.20
51149;BMP280;37210;50.058;8.688;2023-07-24T10:38:41;99045.88;;;27.37
51149;BMP280;37210;50.058;8.688;2023-07-24T10:41:10;99045.66;;;27.29
51149;BMP280;37210;50.058;8.688;2023-07-24T10:43:43;99034.94;;;27.59
51149;BMP280;37210;50.058;8.688;2023-07-24T10:46:11;99045.34;;;27.92
51149;BMP280;37210;50.058;8.688;2023-07-24T10:48:42;99027.09;;;27.86
51149;BMP280;37210;50.058;8.688;2023-07-24T10:51:10;99037.84;;;27.86
51149;BMP280;37210;50.058;8.688;2023-07-24T10:53:44;99028.84;;;28.06
51149;BMP280;37210;50.058;8.688;2023-07-24T10:56:14;99029.44;;;28.29
51149;BMP280;37210;50.058;8.688;2023-07-24T10:58:42;99030.59;;;28.45
51149;BMP280;37210;50.058;8.688;2023-07-24T11:01:10;99028.34;;;28.41
51149;BMP280;37210;50.058;8.688;2023-07-24T11:03:39;99024.22;;;28.27
51149;BMP280;37210;50.058;8.688;2023-07-24T11:06:12;99016.88;;;28.58
51149;BMP280;37210;50.058;8.688;2023-07-24T11:08:41;99011.34;;;28.50
51149;BMP280;37210;50.058;8.688;2023-07-24T11:11:09;98996.38;;;28.57
51149;BMP280;37210;50.058;8.688;2023-07-24T11:13:39;99016.00;;;28.19
51149;BMP280;37210;50.058;8.688;2023-07-24T11:16:08;99005.97;;;28.40
51149;BMP280;37210;50.058;8.688;2023-07-24T11:18:44;99013.75;;;28.43
51149;BMP280;37210;50.058;8.688;2023-07-24T11:21:12;98995.78;;;28.34
51149;BMP280;37210;50.058;8.688;2023-07-24T11:23:45;99008.94;;;28.37
51149;BMP280;37210;50.058;8.688;2023-07-24T11:26:14;98997.19;;;28.48
51149;BMP280;37210;50.058;8.688;2023-07-24T11:28:43;98993.09;;;28.34
51149;BMP280;37210;50.058;8.688;2023-07-24T11:31:11;98987.72;;;28.63
51149;BMP280;37210;50.058;8.688;2023-07-24T11:33:41;98972.41;;;28.73
51149;BMP280;37210;50.058;8.688;2023-07-24T11:36:11;98975.94;;;28.55
51149;BMP280;37210;50.058;8.688;2023-07-24T11:38:38;98981.47;;;28.63
51149;BMP280;37210;50.058;8.688;2023-07-24T11:41:08;98969.88;;;28.14
51149;BMP280;37210;50.058;8.688;2023-07-24T11:43:49;98969.47;;;28.57
51149;BMP280;37210;50.058;8.688;2023-07-24T11:46:24;98982.63;;;28.70
51149;BMP280;37210;50.058;8.688;2023-07-24T11:48:52;98954.88;;;28.60
51149;BMP280;37210;50.058;8.688;2023-07-24T11:51:22;98973.56;;;28.61
51149;BMP280;37210;50.058;8.688;2023-07-24T11:53:50;98977.94;;;28.33
51149;BMP280;37210;50.058;8.688;2023-07-24T11:56:19;98955.69;;;28.51
51149;BMP280;37210;50.058;8.688;2023-07-24T11:58:49;98946.09;;;28.58
51149;BMP280;37210;50.058;8.688;2023-07-24T12:01:16;98951.63;;;28.37
51149;BMP280;37210;50.058;8.688;2023-07-24T12:03:44;98946.31;;;28.83
51149;BMP280;37210;50.058;8.688;2023-07-24T12:06:15;98937.28;;;28.46
51149;BMP280;37210;50.058;8.688;2023-07-24T12:08:43;98943.53;;;28.66
51149;BMP280;37210;50.058;8.688;2023-07-24T12:11:15;98952.03;;;28.52
51149;BMP280;37210;50.058;8.688;2023-07-24T12:13:43;98937.56;;;28.72
51149;BMP280;37210;50.058;8.688;2023-07-24T12:16:12;98927.47;;;28.83
51149;BMP280;37210;50.058;8.688;2023-07-24T12:18:39;98929.03;;;28.86
51149;BMP280;37210;50.058;8.688;2023-07-24T12:21:07;98911.94;;;28.68
51149;BMP280;37210;50.058;8.688;2023-07-24T12:23:34;98904.94;;;28.84
51149;BMP280;37210;50.058;8.688;2023-07-24T12:26:01;98900.13;;;28.88
51149;BMP280;37210;50.058;8.688;2023-07-24T12:28:29;98895.44;;;28.90
51149;BMP280;37210;50.058;8.688;2023-07-24T12:30:56;98886.81;;;28.86
51149;BMP280;37210;50.058;8.688;2023-07-24T12:33:25;98911.38;;;28.55
51149;BMP280;37210;50.058;8.688;2023-07-24T12:35:52;98893.69;;;28.52
51149;BMP280;37210;50.058;8.688;2023-07-24T12:38:20;98898.06;;;28.72
51149;BMP280;37210;50.058;8.688;2023-07-24T12:40:47;98906.56;;;28.68
51149;BMP280;37210;50.058;8.688;2023-07-24T12:43:15;98903.88;;;28.48
51149;BMP280;37210;50.058;8.688;2023-07-24T12:45:42;98913.53;;;28.51
51149;BMP280;37210;50.058;8.688;2023-07-24T12:48:10;98916.09;;;28.33
51149;BMP280;37210;50.058;8.688;2023-07-24T12:50:38;98904.50;;;28.23
51149;BMP280;37210;50.058;8.688;2023-07-24T12:53:09;98917.22;;;28.21
51149;BMP280;37210;50.058;8.688;2023-07-24T12:55:36;98901.69;;;28.15
51149;BMP280;37210;50.058;8.688;2023-07-24T12:58:04;98873.59;;;28.46
51149;BMP280;37210;50.058;8.688;2023-07-24T13:00:31;98900.66;;;28.35
51149;BMP280;37210;50.058;8.688;2023-07-24T13:02:59;98901.06;;;28.60
51149;BMP280;37210;50.058;8.688;2023-07-24T13:05:26;98893.19;;;28.01
51149;BMP280;37210;50.058;8.688;2023-07-24T13:07:55;98890.06;;;27.86
51149;BMP280;37210;50.058;8.688;2023-07-24T13:10:22;98889.47;;;27.73
51149;BMP280;37210;50.058;8.688;2023-07-24T13:12:50;98898.53;;;27.72
51149;BMP280;37210;50.058;8.688;2023-07-24T13:15:17;98894.97;;;27.62
51149;BMP280;37210;50.058;8.688;2023-07-24T13:17:45;98870.00;;;27.81
51149;BMP280;37210;50.058;8.688;2023-07-24T13:20:14;98873.97;;;28.05
51149;BMP280;37210;50.058;8.688;2023-07-24T13:22:41;98858.94;;;27.74
51149;BMP280;37210;50.058;8.688;2023-07-24T13:25:14;98870.28;;;27.97
51149;BMP280;37210;50.058;8.688;2023-07-24T13:27:41;98858.94;;;27.93
51149;BMP280;37210;50.058;8.688;2023-07-24T13:30:10;98859.38;;;27.89
51149;BMP280;37210;50.058;8.688;2023-07-24T13:32:38;98841.84;;;27.85
51149;BMP280;37210;50.058;8.688;2023-07-24T13:35:06;98843.50;;;27.66
51149;BMP280;37210;50.058;8.688;2023-07-24T13:37:34;98851.19;;;27.81
51149;BMP280;37210;50.058;8.688;2023-07-24T13:40:01;98829.09;;;27.87
51149;BMP280;37210;50.058;8.688;2023-07-24T13:42:31;98852.31;;;27.97
51149;BMP280;37210;50.058;8.688;2023-07-24T13:44:59;98799.94;;;27.92
51149;BMP280;37210;50.058;8.688;2023-07-24T13:47:26;98825.41;;;27.68
51149;BMP280;37210;50.058;8.688;2023-07-24T13:49:54;98789.94;;;27.65
51149;BMP280;37210;50.058;8.688;2023-07-24T13:52:21;98824.00;;;27.84
51149;BMP280;37210;50.058;8.688;2023-07-24T13:54:49;98830.38;;;27.63
51149;BMP280;37210;50.058;8.688;2023-07-24T13:57:16;98825.34;;;27.11
51149;BMP280;37210;50.058;8.688;2023-07-24T13:59:45;98834.97;;;25.71
51149;BMP280;37210;50.058;8.688;2023-07-24T14:02:13;98867.31;;;26.10
51149;BMP280;37210;50.058;8.688;2023-07-24T14:04:40;98825.09;;;25.82
51149;BMP280;37210;50.058;8.688;2023-07-24T14:07:08;98860.47;;;26.38
51149;BMP280;37210;50.058;8.688;2023-07-24T14:09:36;98868.63;;;26.67
51149;BMP280;37210;50.058;8.688;2023-07-24T14:12:04;98872.63;;;26.72
51149;BMP280;37210;50.058;8.688;2023-07-24T14:14:32;98876.44;;;26.70
51149;BMP280;37210;50.058;8.688;2023-07-24T14:17:00;98862.25;;;26.58